Time;durP1;ratioP1;P1;durP2;ratioP2;P2;SDS_P1;SDS_P2;PMS_P1;PMS_P2;Temp;Humidity;BMP_temperature;BMP_pressure;BME280_temperature;BME280_humidity;BME280_pressure;Samples;Min_cycle;Max_cycle;Signal;HPM_P1;HPM_P2
2024/03/07 00:01:31;;;;;;;22.70;7.43;;;;;;;-6.52;45.51;100912.66;4869036;29;20052;-80
2024/03/07 00:04:01;;;;;;;30.02;7.82;;;;;;;-6.68;45.32;100881.06;4881429;29;20170;-80
2024/03/07 00:06:27;;;;;;;20.15;8.13;;;;;;;-7.43;45.66;100730.19;4882697;29;20040;-79
2024/03/07 00:08:54;;;;;;;24.60;9.45;;;;;;;-6.31;45.52;100902.41;4898100;29;20048;-80
2024/03/07 00:11:21;;;;;;;31.85;9.27;;;;;;;-6.26;46.01;100898.53;4878210;29;20040;-80
2024/03/07 00:13:47;;;;;;;23.40;8.88;;;;;;;-6.25;45.71;100906.28;4865455;29;20097;-80
2024/03/07 00:16:13;;;;;;;32.30;9.10;;;;;;;-6.29;45.35;100905.94;4870084;29;20044;-80
2024/03/07 00:18:41;;;;;;;24.80;9.05;;;;;;;-6.43;45.54;100913.34;4880299;29;20072;-82
2024/03/07 00:21:08;;;;;;;26.52;8.70;;;;;;;-6.51;45.71;100902.63;4864538;29;20045;-80
2024/03/07 00:23:34;;;;;;;22.58;8.23;;;;;;;-6.52;45.63;100903.38;4890570;29;20044;-80
2024/03/07 00:26:00;;;;;;;21.65;8.07;;;;;;;-6.47;46.30;100902.88;4878229;29;20107;-77
2024/03/07 00:28:32;;;;;;;26.52;8.45;;;;;;;-7.02;45.74;100830.34;4861209;29;20049;-76
2024/03/07 00:31:00;;;;;;;23.48;8.32;;;;;;;-6.78;46.01;100886.19;4878339;29;20084;-76
2024/03/07 00:33:25;;;;;;;26.27;8.40;;;;;;;-7.30;46.08;100815.50;4875976;29;20518;-77
2024/03/07 00:35:51;;;;;;;17.83;7.80;;;;;;;-6.73;46.46;100891.59;4861309;29;20040;-77
2024/03/07 00:38:20;;;;;;;25.55;7.53;;;;;;;-7.20;46.46;100807.00;4891689;29;20136;-77
2024/03/07 00:40:46;;;;;;;22.05;7.57;;;;;;;-7.36;46.67;100768.63;4864205;29;20040;-77
2024/03/07 00:43:13;;;;;;;19.83;7.50;;;;;;;-6.58;46.60;100874.19;4874402;29;20048;-78
2024/03/07 00:45:43;;;;;;;21.63;6.95;;;;;;;-6.36;46.76;100900.41;4869864;29;20108;-79
2024/03/07 00:48:14;;;;;;;18.13;7.22;;;;;;;-6.89;46.52;100801.81;4875587;29;20061;-80
2024/03/07 00:50:46;;;;;;;21.58;7.10;;;;;;;-6.57;46.82;100841.38;4854839;29;20122;-84
2024/03/07 00:53:13;;;;;;;19.13;6.55;;;;;;;-6.66;46.57;100820.41;4886107;29;20056;-82
2024/03/07 00:55:48;;;;;;;19.38;7.25;;;;;;;-6.41;46.58;100858.63;4881601;29;20416;-82
2024/03/07 00:58:17;;;;;;;24.08;6.22;;;;;;;-6.45;46.75;100843.94;4884275;29;20044;-85
2024/03/07 01:00:43;;;;;;;21.38;6.93;;;;;;;-6.14;46.37;100891.91;4897322;29;20044;-83
2024/03/07 01:03:13;;;;;;;17.30;6.78;;;;;;;-6.49;46.45;100810.69;4883794;29;20538;-81
2024/03/07 01:05:43;;;;;;;21.02;7.47;;;;;;;-6.43;46.44;100816.22;4880720;29;20044;-81
2024/03/07 01:08:12;;;;;;;19.52;7.40;;;;;;;-6.53;45.79;100822.25;4872592;29;20071;-81
2024/03/07 01:10:39;;;;;;;25.08;7.88;;;;;;;-6.75;46.33;100807.94;4871357;29;20044;-81
2024/03/07 01:13:07;;;;;;;16.27;6.93;;;;;;;-6.96;46.12;100780.22;4885603;29;20075;-80
2024/03/07 01:15:38;;;;;;;21.27;7.13;;;;;;;-6.48;46.80;100851.31;4877313;29;20104;-82
2024/03/07 01:18:09;;;;;;;27.92;7.57;;;;;;;-7.12;46.52;100744.34;4862657;29;20071;-80
2024/03/07 01:20:36;;;;;;;24.20;7.03;;;;;;;-6.50;46.54;100835.09;4895815;29;20041;-81
2024/03/07 01:23:02;;;;;;;30.27;8.15;;;;;;;-6.84;46.59;100782.78;4871963;29;20072;-83
2024/03/07 01:25:28;;;;;;;20.48;8.18;;;;;;;-7.28;46.19;100739.75;4878025;29;20036;-80
2024/03/07 01:27:55;;;;;;;21.17;7.65;;;;;;;-6.66;46.61;100839.00;4870163;29;20033;-80
2024/03/07 01:30:23;;;;;;;20.02;7.72;;;;;;;-6.76;46.27;100821.34;4876716;29;20538;-81
2024/03/07 01:32:49;;;;;;;20.95;6.82;;;;;;;-7.16;46.31;100760.03;4876884;29;20571;-81
2024/03/07 01:35:15;;;;;;;23.63;7.10;;;;;;;-6.77;46.49;100834.78;4849503;29;20139;-82
2024/03/07 01:37:41;;;;;;;29.45;8.27;;;;;;;-7.12;46.17;100792.41;4862988;29;20041;-83
2024/03/07 01:40:08;;;;;;;25.20;8.27;;;;;;;-6.84;45.97;100861.25;4876290;29;20045;-84
2024/03/07 01:42:34;;;;;;;21.25;7.40;;;;;;;-7.21;46.32;100814.50;4873019;29;20047;-83
2024/03/07 01:45:01;;;;;;;22.17;8.00;;;;;;;-6.86;46.81;100879.63;4877919;29;20100;-80
2024/03/07 01:47:30;;;;;;;21.50;7.13;;;;;;;-6.88;46.69;100850.78;4896008;29;20130;-81
2024/03/07 01:49:56;;;;;;;24.33;8.00;;;;;;;-6.89;46.63;100837.25;4892007;29;20040;-80
2024/03/07 01:52:29;;;;;;;32.53;9.50;;;;;;;-7.18;46.37;100779.31;4875665;29;20168;-79
2024/03/07 01:54:56;;;;;;;17.83;7.22;;;;;;;-7.38;46.86;100772.69;4890458;29;20563;-77
2024/03/07 01:57:22;;;;;;;30.73;9.68;;;;;;;-7.16;46.64;100820.75;4888837;29;20108;-77
2024/03/07 01:59:50;;;;;;;23.58;7.85;;;;;;;-7.00;46.77;100866.78;4877291;29;20526;-77
2024/03/07 02:02:17;;;;;;;25.67;7.95;;;;;;;-7.22;46.51;100838.03;4890050;29;20037;-78
2024/03/07 02:04:45;;;;;;;25.38;8.90;;;;;;;-7.20;46.94;100860.13;4888532;29;20051;-77
2024/03/07 02:07:11;;;;;;;21.73;9.25;;;;;;;-7.24;46.98;100857.25;4891031;29;20040;-75
2024/03/07 02:09:38;;;;;;;26.45;9.10;;;;;;;-7.70;46.83;100792.13;4888633;29;20088;-80
2024/03/07 02:12:05;;;;;;;25.52;7.72;;;;;;;-7.80;47.06;100770.28;4876298;29;20040;-80
2024/03/07 02:14:31;;;;;;;31.08;7.88;;;;;;;-7.77;47.32;100765.47;4877014;29;20059;-81
2024/03/07 02:16:58;;;;;;;20.77;7.03;;;;;;;-7.70;47.30;100766.84;4871672;29;20040;-81
2024/03/07 02:19:25;;;;;;;17.85;7.53;;;;;;;-7.50;47.18;100775.13;4876145;29;20496;-79
2024/03/07 02:21:51;;;;;;;25.17;8.38;;;;;;;-7.26;47.11;100812.47;4889600;29;20045;-82
2024/03/07 02:24:18;;;;;;;19.52;7.05;;;;;;;-7.18;47.21;100820.66;4880103;29;20146;-80
2024/03/07 02:26:44;;;;;;;26.50;7.43;;;;;;;-7.00;47.65;100853.22;4876801;29;20040;-80
2024/03/07 02:29:10;;;;;;;21.30;6.43;;;;;;;-7.17;47.23;100799.66;4891613;29;20049;-79
2024/03/07 02:31:37;;;;;;;31.95;7.43;;;;;;;-7.50;46.95;100750.69;4876530;29;20044;-81
2024/03/07 02:34:04;;;;;;;18.83;7.15;;;;;;;-7.02;47.05;100827.81;4892954;29;20040;-82
2024/03/07 02:36:30;;;;;;;20.65;7.30;;;;;;;-7.44;47.06;100756.25;4869273;29;20041;-81
2024/03/07 02:38:57;;;;;;;15.32;7.07;;;;;;;-7.20;46.90;100801.94;4872719;29;20534;-79
2024/03/07 02:41:24;;;;;;;22.77;7.15;;;;;;;-6.91;47.17;100846.38;4874473;29;20415;-79
2024/03/07 02:43:51;;;;;;;27.08;8.32;;;;;;;-7.11;46.77;100824.56;4864530;29;20040;-80
2024/03/07 02:46:17;;;;;;;19.63;6.72;;;;;;;-7.57;46.74;100749.34;4880187;29;20048;-82
2024/03/07 02:48:43;;;;;;;24.85;7.70;;;;;;;-7.09;46.80;100829.75;4912389;29;20410;-80
2024/03/07 02:51:11;;;;;;;24.38;7.53;;;;;;;-7.33;46.97;100796.69;4896828;29;20075;-80
2024/03/07 02:53:38;;;;;;;25.35;7.22;;;;;;;-7.60;47.02;100759.22;4894269;29;20036;-81
2024/03/07 02:56:08;;;;;;;18.02;6.25;;;;;;;-7.34;47.26;100793.25;4882911;29;20044;-81
2024/03/07 02:58:34;;;;;;;16.00;6.53;;;;;;;-7.30;47.19;100800.34;4880329;29;20072;-79
2024/03/07 03:01:00;;;;;;;25.92;7.80;;;;;;;-7.12;46.75;100823.69;4874764;29;20040;-81
2024/03/07 03:03:27;;;;;;;26.08;7.93;;;;;;;-7.07;46.90;100830.75;4884908;29;20092;-81
2024/03/07 03:05:53;;;;;;;19.25;7.20;;;;;;;-7.29;46.60;100784.41;4892146;29;20175;-81
2024/03/07 03:08:20;;;;;;;21.40;7.00;;;;;;;-7.61;46.97;100724.56;4864835;29;20071;-80
2024/03/07 03:10:46;;;;;;;25.00;8.63;;;;;;;-7.01;47.15;100824.53;4868672;29;20041;-79
2024/03/07 03:13:12;;;;;;;22.17;7.80;;;;;;;-7.56;46.26;100735.94;4897523;29;20043;-80
2024/03/07 03:15:38;;;;;;;23.20;7.50;;;;;;;-7.25;46.74;100798.16;4863364;29;20075;-79
2024/03/07 03:18:05;;;;;;;30.75;7.30;;;;;;;-7.16;46.74;100818.25;4894341;29;20128;-80
2024/03/07 03:20:34;;;;;;;22.88;7.82;;;;;;;-7.27;46.90;100805.66;4894821;29;20051;-79
2024/03/07 03:23:23;;;;;;;29.35;7.70;;;;;;;-7.13;47.08;100815.94;4876069;29;20063;-80
2024/03/07 03:25:52;;;;;;;22.10;6.90;;;;;;;-7.60;47.19;100761.75;4879746;29;20044;-81
2024/03/07 03:28:20;;;;;;;22.55;6.40;;;;;;;-7.44;47.07;100801.78;4878974;29;20112;-79
2024/03/07 03:30:47;;;;;;;25.38;7.10;;;;;;;-7.34;46.74;100817.69;4882017;29;20049;-79
2024/03/07 03:33:15;;;;;;;22.88;6.88;;;;;;;-7.39;46.83;100832.47;4872894;29;20041;-79
2024/03/07 03:35:41;;;;;;;27.27;6.57;;;;;;;-7.92;47.33;100741.47;4865470;29;20048;-80
2024/03/07 03:38:09;;;;;;;20.15;6.63;;;;;;;-7.66;47.36;100773.91;4866451;29;20047;-80
2024/03/07 03:40:35;;;;;;;34.75;13.07;;;;;;;-7.81;47.07;100744.88;4882416;29;20052;-80
2024/03/07 03:43:07;;;;;;;36.13;14.18;;;;;;;-7.45;47.15;100804.19;4896302;29;20048;-80
2024/03/07 03:45:33;;;;;;;21.60;9.25;;;;;;;-7.79;46.81;100758.50;4879618;29;20051;-81
2024/03/07 03:48:00;;;;;;;21.17;8.50;;;;;;;-7.58;47.33;100823.44;4865393;29;20041;-79
2024/03/07 03:50:26;;;;;;;18.98;7.40;;;;;;;-7.84;47.45;100762.34;4893956;29;20040;-79
2024/03/07 03:52:53;;;;;;;22.88;6.55;;;;;;;-7.58;47.10;100813.31;4890572;29;20055;-80
2024/03/07 03:55:20;;;;;;;24.42;6.82;;;;;;;-7.51;47.57;100818.88;4880147;29;20046;-81
2024/03/07 03:57:49;;;;;;;22.25;7.13;;;;;;;-7.45;47.00;100835.41;4880331;29;20167;-79
2024/03/07 04:00:16;;;;;;;20.77;6.47;;;;;;;-8.40;47.24;100661.88;4881406;29;20040;-81
2024/03/07 04:02:47;;;;;;;17.40;6.00;;;;;;;-7.77;47.59;100749.41;4874450;29;20055;-78
2024/03/07 04:05:30;;;;;;;18.15;5.97;;;;;;;-8.41;47.07;100639.91;4877726;29;20040;-83
2024/03/07 04:07:56;;;;;;;29.60;7.63;;;;;;;-7.29;47.15;100816.41;4880613;29;20036;-79
2024/03/07 04:10:35;;;;;;;23.15;6.97;;;;;;;-7.36;47.34;100797.31;4876664;29;20188;-81
2024/03/07 04:13:01;;;;;;;18.73;7.35;;;;;;;-7.32;47.03;100806.91;4879835;29;20136;-79
2024/03/07 04:15:30;;;;;;;19.35;5.93;;;;;;;-7.76;47.26;100753.69;4859757;29;20519;-79
2024/03/07 04:17:56;;;;;;;17.40;6.18;;;;;;;-7.82;46.98;100723.78;4875488;29;20085;-81
2024/03/07 04:20:24;;;;;;;21.30;6.32;;;;;;;-7.22;47.05;100817.78;4873146;29;20489;-78
2024/03/07 04:22:50;;;;;;;25.25;7.70;;;;;;;-7.28;47.24;100813.13;4880270;29;20530;-79
2024/03/07 04:25:18;;;;;;;13.70;5.95;;;;;;;-7.62;47.13;100727.00;4879459;29;20040;-80
2024/03/07 04:27:46;;;;;;;23.63;6.07;;;;;;;-6.99;46.98;100812.88;4875968;29;20599;-80
2024/03/07 04:30:16;;;;;;;18.98;6.13;;;;;;;-7.58;47.51;100699.53;4895829;29;20132;-80
2024/03/07 04:32:42;;;;;;;25.70;7.40;;;;;;;-7.11;46.99;100741.03;4892993;29;20546;-81
2024/03/07 04:35:10;;;;;;;19.50;6.43;;;;;;;-6.62;47.12;100809.75;4878081;29;20036;-79
2024/03/07 04:37:37;;;;;;;26.98;6.78;;;;;;;-6.66;46.96;100778.22;4891562;29;20059;-80
2024/03/07 04:40:14;;;;;;;28.95;9.90;;;;;;;-6.42;47.04;100780.84;4861882;29;20049;-79
2024/03/07 04:42:43;;;;;;;19.20;8.52;;;;;;;-6.30;46.72;100734.41;4875554;29;20419;-79
2024/03/07 04:45:13;;;;;;;23.63;9.43;;;;;;;-6.05;46.51;100705.00;4891153;29;20064;-80
2024/03/07 04:47:44;;;;;;;26.05;7.68;;;;;;;-4.44;46.54;100799.00;4873959;29;20078;-79
2024/03/07 04:50:12;;;;;;;20.88;6.72;;;;;;;-2.90;45.79;100783.31;4897440;29;20444;-82
2024/03/07 04:52:39;;;;;;;16.83;5.75;;;;;;;-1.67;45.12;100747.94;4880291;29;20040;-80
2024/03/07 04:55:10;;;;;;;14.77;5.63;;;;;;;-0.63;44.06;100698.09;4879612;29;20044;-80
2024/03/07 04:57:40;;;;;;;16.27;5.65;;;;;;;0.85;42.92;100741.81;4892075;29;20143;-79
2024/03/07 05:00:13;;;;;;;16.35;5.70;;;;;;;2.02;41.49;100739.09;4875619;29;20040;-80
2024/03/07 05:02:40;;;;;;;11.13;5.00;;;;;;;3.06;40.22;100725.97;4862910;29;20068;-83
2024/03/07 05:05:09;;;;;;;22.13;5.63;;;;;;;4.17;38.97;100746.03;4894020;29;20500;-81
2024/03/07 05:07:39;;;;;;;16.85;6.82;;;;;;;5.00;37.83;100719.31;4898204;29;20044;-81
2024/03/07 05:10:08;;;;;;;17.23;6.25;;;;;;;5.83;36.92;100694.84;4886093;29;20524;-84
2024/03/07 05:12:36;;;;;;;14.48;5.18;;;;;;;6.23;35.36;100624.28;4876951;29;20048;-82
2024/03/07 05:15:05;;;;;;;13.45;5.18;;;;;;;7.23;34.08;100698.78;4879374;29;20060;-81
2024/03/07 05:17:34;;;;;;;12.15;4.72;;;;;;;7.75;33.30;100697.97;4881596;29;20036;-86
2024/03/07 05:20:09;;;;;;;16.80;5.55;;;;;;;8.53;32.47;100733.78;4891778;29;20132;-83
2024/03/07 05:22:50;;;;;;;11.00;5.38;;;;;;;8.86;31.29;100669.34;4893740;29;20057;-83
2024/03/07 05:25:18;;;;;;;12.80;4.95;;;;;;;9.60;30.58;100659.69;4880481;29;20052;-82
2024/03/07 05:27:46;;;;;;;9.35;4.97;;;;;;;10.40;29.63;100692.41;4871779;29;20035;-81
2024/03/07 05:30:13;;;;;;;11.35;4.63;;;;;;;10.93;28.82;100697.84;4894848;29;20098;-81
2024/03/07 05:32:39;;;;;;;11.77;4.32;;;;;;;11.72;28.11;100659.81;4874767;29;20138;-79
2024/03/07 05:35:07;;;;;;;10.82;4.95;;;;;;;12.51;26.79;100684.97;4906095;29;20044;-81
2024/03/07 05:37:33;;;;;;;11.43;4.72;;;;;;;13.34;26.18;100738.63;4893519;29;20049;-82
2024/03/07 05:40:03;;;;;;;11.30;5.18;;;;;;;13.81;25.53;100735.75;4894225;29;20493;-80
2024/03/07 05:42:33;;;;;;;12.73;4.88;;;;;;;14.35;24.59;100708.22;4893387;29;20048;-80
2024/03/07 05:44:59;;;;;;;10.68;5.68;;;;;;;14.58;24.10;100660.84;4877192;29;20052;-79
2024/03/07 05:47:28;;;;;;;16.80;5.50;;;;;;;14.98;23.58;100668.25;4872854;29;20099;-78
2024/03/07 05:49:54;;;;;;;11.75;5.40;;;;;;;15.48;23.39;100636.94;4874892;29;20448;-79
2024/03/07 05:52:27;;;;;;;11.13;4.82;;;;;;;16.17;22.40;100643.66;4890210;29;20080;-78
2024/03/07 05:54:56;;;;;;;9.32;4.97;;;;;;;17.00;21.82;100686.69;4874978;29;20139;-76
2024/03/07 05:57:23;;;;;;;10.73;5.47;;;;;;;17.37;21.71;100668.38;4869865;29;20040;-75
2024/03/07 05:59:49;;;;;;;8.75;4.90;;;;;;;17.16;20.59;100600.47;4889658;29;20419;-74
2024/03/07 06:02:15;;;;;;;8.35;4.40;;;;;;;18.13;20.66;100693.72;4890198;29;20051;-75
2024/03/07 06:04:43;;;;;;;12.45;5.30;;;;;;;18.49;20.09;100662.03;4874016;29;20869;-73
2024/03/07 06:07:10;;;;;;;13.00;6.10;;;;;;;19.70;20.00;100686.56;4875934;29;20060;-75
2024/03/07 06:09:37;;;;;;;11.30;5.25;;;;;;;20.52;19.45;100689.06;4840541;29;20090;-78
2024/03/07 06:12:08;;;;;;;10.90;5.20;;;;;;;20.90;18.60;100685.94;4867049;29;20051;-78
2024/03/07 06:14:34;;;;;;;12.60;5.60;;;;;;;20.90;18.64;100631.28;4866738;29;20072;-78
2024/03/07 06:17:00;;;;;;;12.20;4.97;;;;;;;21.90;18.09;100681.13;4882797;29;20040;-80
2024/03/07 06:19:27;;;;;;;7.20;4.80;;;;;;;22.22;17.68;100670.06;4867336;29;20116;-74
2024/03/07 06:21:54;;;;;;;6.28;4.32;;;;;;;22.84;17.30;100685.88;4884995;29;20040;-75
2024/03/07 06:24:22;;;;;;;8.93;4.50;;;;;;;23.07;17.13;100674.19;4859215;29;20064;-76
2024/03/07 06:26:59;;;;;;;13.18;4.93;;;;;;;23.41;16.86;100667.28;4883990;29;20052;-76
2024/03/07 06:29:29;;;;;;;7.63;4.68;;;;;;;23.86;16.82;100677.50;4875084;29;20063;-74
2024/03/07 06:31:58;;;;;;;8.15;4.40;;;;;;;24.03;16.57;100664.22;4862600;29;20041;-75
2024/03/07 06:34:25;;;;;;;12.95;4.43;;;;;;;23.74;15.94;100617.88;4875318;29;20045;-74
2024/03/07 06:36:51;;;;;;;9.25;4.15;;;;;;;23.71;15.58;100632.19;4874036;29;20049;-73
2024/03/07 06:39:21;;;;;;;9.20;5.43;;;;;;;24.20;15.59;100660.69;4887127;29;20044;-81
2024/03/07 06:41:48;;;;;;;9.33;4.27;;;;;;;24.38;15.21;100654.50;4875081;29;20045;-73
2024/03/07 06:44:14;;;;;;;7.15;4.75;;;;;;;24.43;15.70;100647.09;4874603;29;20047;-76
2024/03/07 06:46:40;;;;;;;8.02;5.13;;;;;;;24.28;15.34;100631.03;4885245;29;20060;-76
2024/03/07 06:49:10;;;;;;;7.93;5.10;;;;;;;24.17;15.14;100623.63;4867259;29;20045;-74
2024/03/07 06:51:36;;;;;;;7.63;5.03;;;;;;;24.00;14.77;100644.94;4884619;29;20203;-77
2024/03/07 06:54:03;;;;;;;8.27;5.20;;;;;;;24.06;14.75;100616.22;4859675;29;20142;-75
2024/03/07 06:56:34;;;;;;;12.52;5.55;;;;;;;24.40;14.91;100626.00;4886275;29;20116;-73
2024/03/07 06:59:04;;;;;;;9.65;4.90;;;;;;;24.35;14.67;100636.88;4869060;29;20404;-77
2024/03/07 07:01:31;;;;;;;8.25;4.40;;;;;;;24.64;14.11;100631.78;4870327;29;20044;-77
2024/03/07 07:03:58;;;;;;;9.70;4.57;;;;;;;24.79;14.55;100644.28;4886038;29;20103;-75
2024/03/07 07:06:31;;;;;;;17.90;5.05;;;;;;;24.49;14.23;100642.34;4860502;29;20051;-75
2024/03/07 07:09:02;;;;;;;10.13;4.68;;;;;;;24.23;14.11;100632.22;4883384;29;20183;-76
2024/03/07 07:11:30;;;;;;;9.32;4.30;;;;;;;23.97;14.28;100622.00;4887170;29;20037;-78
2024/03/07 07:13:56;;;;;;;9.55;4.82;;;;;;;24.09;14.16;100623.16;4885433;29;20056;-77
2024/03/07 07:16:23;;;;;;;8.18;4.53;;;;;;;23.59;14.23;100598.25;4888031;29;20045;-77
2024/03/07 07:18:49;;;;;;;13.77;5.13;;;;;;;23.65;14.13;100636.91;4885214;29;20469;-77
2024/03/07 07:21:15;;;;;;;8.27;4.60;;;;;;;23.63;13.79;100615.75;4886455;29;20072;-78
2024/03/07 07:23:42;;;;;;;7.82;4.32;;;;;;;23.57;14.08;100613.41;4882976;29;20060;-78
2024/03/07 07:26:08;;;;;;;8.88;4.88;;;;;;;23.06;13.89;100607.91;4876605;29;20527;-78
2024/03/07 07:28:36;;;;;;;9.52;4.68;;;;;;;22.72;13.60;100623.66;4823088;29;1431200;-81
2024/03/07 07:31:03;;;;;;;10.43;5.38;;;;;;;23.02;14.55;100628.44;4863139;29;20136;-76
2024/03/07 07:33:29;;;;;;;10.98;5.35;;;;;;;23.45;14.52;100621.06;4886067;29;20045;-80
2024/03/07 07:35:55;;;;;;;16.40;5.72;;;;;;;23.95;14.31;100618.53;4859697;29;20040;-78
2024/03/07 07:38:24;;;;;;;16.50;5.18;;;;;;;24.42;13.96;100609.03;4888347;29;20047;-73
2024/03/07 07:40:50;;;;;;;15.98;6.00;;;;;;;24.54;14.01;100626.13;4884829;29;20087;-76
2024/03/07 07:43:17;;;;;;;11.25;5.53;;;;;;;24.52;13.75;100635.97;4884695;29;20040;-73
2024/03/07 07:45:43;;;;;;;17.20;6.03;;;;;;;24.85;14.00;100605.81;4872911;29;20397;-77
2024/03/07 07:48:11;;;;;;;11.40;5.68;;;;;;;25.29;14.22;100598.91;4883682;29;20511;-75
2024/03/07 07:50:37;;;;;;;13.82;6.28;;;;;;;25.83;13.63;100558.44;4875951;29;20120;-73
2024/03/07 07:53:08;;;;;;;13.65;5.95;;;;;;;27.23;13.97;100623.56;4867273;29;20072;-74
2024/03/07 07:55:35;;;;;;;19.10;6.20;;;;;;;27.84;13.64;100620.41;4864840;29;20068;-74
2024/03/07 07:58:04;;;;;;;13.48;6.10;;;;;;;28.25;13.45;100580.09;4872689;29;20056;-75
2024/03/07 08:00:30;;;;;;;18.65;6.32;;;;;;;29.35;13.59;100613.28;4884338;29;20047;-73
2024/03/07 08:02:58;;;;;;;15.52;6.10;;;;;;;30.16;13.01;100611.56;4881536;29;20045;-73
2024/03/07 08:05:29;;;;;;;14.85;5.95;;;;;;;30.54;12.79;100604.13;4866720;29;20527;-71
2024/03/07 08:07:57;;;;;;;11.60;5.70;;;;;;;31.17;13.30;100568.59;4883407;29;20092;-73
2024/03/07 08:10:26;;;;;;;12.70;5.88;;;;;;;31.09;12.81;100596.06;4873926;29;20049;-74
2024/03/07 08:12:52;;;;;;;13.70;5.82;;;;;;;30.73;11.82;100570.41;4885589;29;20514;-73
2024/03/07 08:15:20;;;;;;;12.02;5.57;;;;;;;30.75;12.59;100568.47;4882838;29;20037;-73
2024/03/07 08:17:48;;;;;;;11.02;6.03;;;;;;;30.58;12.76;100546.50;4867302;29;20041;-74
2024/03/07 08:20:20;;;;;;;11.43;5.72;;;;;;;31.27;12.33;100574.03;4867599;29;20044;-76
2024/03/07 08:22:47;;;;;;;12.07;5.78;;;;;;;31.01;12.51;100517.94;4884291;29;20092;-76
2024/03/07 08:25:14;;;;;;;10.65;5.97;;;;;;;31.28;12.11;100572.19;4884703;29;20184;-75
2024/03/07 08:27:45;;;;;;;12.02;5.13;;;;;;;30.75;12.25;100565.78;4866731;29;20515;-74
2024/03/07 08:30:15;;;;;;;9.68;5.30;;;;;;;29.36;12.13;100535.47;4871515;29;20528;-76
2024/03/07 08:32:46;;;;;;;12.00;5.47;;;;;;;29.01;12.15;100577.34;4887846;29;20056;-74
2024/03/07 08:35:12;;;;;;;;;;;;;;;28.62;12.66;100576.59;4885732;29;20049;-74
2024/03/07 08:37:40;;;;;;;15.43;4.70;;;;;;;28.39;12.81;100555.03;4857129;29;19975;-73
2024/03/07 08:40:19;;;;;;;7.15;4.95;;;;;;;27.48;12.52;100523.94;4874393;29;20120;-72
2024/03/07 08:42:53;;;;;;;9.05;4.43;;;;;;;27.43;13.05;100560.78;4871670;29;20041;-75
2024/03/07 08:45:20;;;;;;;13.98;4.57;;;;;;;27.56;13.13;100555.50;4859389;29;20049;-75
2024/03/07 08:47:50;;;;;;;12.15;4.80;;;;;;;28.36;13.16;100559.75;4855529;29;20050;-73
2024/03/07 08:50:17;;;;;;;9.23;4.15;;;;;;;28.78;13.23;100511.25;4864621;29;20048;-75
2024/03/07 08:52:45;;;;;;;9.32;4.47;;;;;;;29.49;12.58;100510.41;4866473;29;20060;-73
2024/03/07 08:55:28;;;;;;;8.38;4.40;;;;;;;30.59;12.60;100545.53;4859196;29;20041;-74
2024/03/07 08:57:56;;;;;;;8.50;4.15;;;;;;;31.57;12.72;100548.19;4870460;29;20037;-73
2024/03/07 09:00:26;;;;;;;6.07;4.60;;;;;;;31.61;12.83;100495.00;4866111;29;20129;-74
2024/03/07 09:02:53;;;;;;;5.82;4.20;;;;;;;31.17;11.95;100530.97;4868552;29;20049;-72
2024/03/07 09:05:23;;;;;;;6.38;3.92;;;;;;;30.91;12.37;100498.19;4854242;29;20037;-75
2024/03/07 09:07:51;;;;;;;6.82;4.03;;;;;;;31.57;12.64;100532.06;4870840;29;20045;-75
2024/03/07 09:10:18;;;;;;;8.48;4.40;;;;;;;30.62;12.02;100486.22;4853768;29;20044;-72
2024/03/07 09:12:49;;;;;;;7.70;3.90;;;;;;;30.62;11.94;100510.38;4849167;29;20111;-73
2024/03/07 09:15:37;;;;;;;5.38;3.72;;;;;;;30.63;12.45;100520.16;4848827;29;20222;-73
2024/03/07 09:18:04;;;;;;;10.57;3.90;;;;;;;30.67;12.05;100499.28;4885093;29;20733;-74
2024/03/07 09:20:33;;;;;;;8.27;3.80;;;;;;;30.22;12.22;100464.47;4851814;29;20044;-73
2024/03/07 09:23:11;;;;;;;5.97;4.20;;;;;;;30.23;12.66;100504.59;4849655;29;20044;-73
2024/03/07 09:25:39;;;;;;;5.82;3.67;;;;;;;29.60;12.25;100464.84;4869027;29;20045;-72
2024/03/07 09:28:06;;;;;;;7.28;3.92;;;;;;;29.71;12.12;100493.50;4849423;29;20091;-73
2024/03/07 09:30:32;;;;;;;7.22;3.95;;;;;;;29.75;12.35;100511.06;4872067;29;20048;-76
2024/03/07 09:33:02;;;;;;;7.70;4.00;;;;;;;29.73;12.42;100500.44;4866431;29;20138;-72
2024/03/07 09:35:28;;;;;;;8.88;4.07;;;;;;;29.11;12.72;100451.59;4883623;29;20052;-75
2024/03/07 09:37:57;;;;;;;7.35;3.85;;;;;;;29.37;13.04;100467.53;4882506;29;21839;-76
2024/03/07 09:40:25;;;;;;;6.35;3.53;;;;;;;29.59;12.56;100508.72;4882038;29;20070;-75
2024/03/07 09:42:52;;;;;;;7.13;3.67;;;;;;;29.44;12.57;100497.38;4866605;29;20131;-76
2024/03/07 09:45:21;;;;;;;7.30;3.72;;;;;;;28.62;12.40;100441.91;4881793;29;20136;-75
2024/03/07 09:47:49;;;;;;;5.28;3.78;;;;;;;28.79;12.64;100429.97;4857365;29;20055;-75
2024/03/07 09:50:23;;;;;;;5.90;3.92;;;;;;;28.14;12.29;100448.94;4872362;29;20040;-74
2024/03/07 09:52:50;;;;;;;5.68;3.60;;;;;;;26.52;13.07;100453.69;4884084;29;20052;-74
2024/03/07 09:55:17;;;;;;;7.18;3.80;;;;;;;25.90;13.17;100446.97;4883052;29;20061;-74
2024/03/07 09:57:47;;;;;;;6.63;3.65;;;;;;;26.18;13.28;100503.91;4888129;29;20036;-74
2024/03/07 10:00:22;;;;;;;7.10;3.42;;;;;;;26.45;13.97;100449.75;4869817;29;20063;-76
2024/03/07 10:02:56;;;;;;;6.22;3.20;;;;;;;26.42;13.23;100455.28;4869718;29;20044;-73
2024/03/07 10:05:27;;;;;;;7.07;3.60;;;;;;;26.63;13.33;100469.00;4872600;29;20420;-73
2024/03/07 10:07:56;;;;;;;9.38;3.08;;;;;;;26.55;13.25;100501.53;4884910;29;20508;-74
2024/03/07 10:10:21;;;;;;;7.32;3.88;;;;;;;25.85;13.71;100492.56;4869465;29;20559;-75
2024/03/07 10:12:53;;;;;;;5.97;3.10;;;;;;;25.85;14.07;100489.91;4873342;29;20499;-74
2024/03/07 10:15:34;;;;;;;6.47;3.08;;;;;;;26.00;13.70;100420.56;4870335;29;20419;-83
2024/03/07 10:18:01;;;;;;;7.43;3.15;;;;;;;25.97;13.63;100392.31;4869627;29;20665;-78
2024/03/07 10:20:51;;;;;;;9.98;3.33;;;;;;;24.58;13.20;100475.19;4887934;29;20048;-76
2024/03/07 10:23:20;;;;;;;9.38;3.97;;;;;;;21.70;13.89;100482.47;4862906;29;20076;-74
2024/03/07 10:25:55;;;;;;;13.10;3.35;;;;;;;19.43;14.91;100446.41;4890866;29;20543;-72
2024/03/07 10:28:38;;;;;;;6.53;3.10;;;;;;;18.13;15.41;100485.69;4884005;29;20072;-72
2024/03/07 10:31:28;;;;;;;5.95;3.03;;;;;;;16.38;16.62;100476.94;4905522;29;20491;-73
2024/03/07 10:34:02;;;;;;;4.68;3.28;;;;;;;15.36;16.98;100495.53;4858448;29;20037;-72
2024/03/07 10:36:32;;;;;;;4.25;2.65;;;;;;;14.02;17.45;100433.78;4878444;29;20048;-74
2024/03/07 10:41:51;;;;;;;5.97;3.42;;;;;;;12.94;18.74;100506.31;4870956;29;20055;-77
2024/03/07 10:44:23;;;;;;;;;;;;;;;12.34;19.07;100499.72;4891152;29;20047;-73
2024/03/07 10:46:59;;;;;;;6.65;2.72;;;;;;;11.83;19.53;100497.25;4907768;29;19926;-73
2024/03/07 10:49:28;;;;;;;5.18;2.72;;;;;;;11.18;20.24;100448.75;4844711;29;20045;-74
2024/03/07 10:52:13;;;;;;;4.93;2.22;;;;;;;11.26;20.47;100490.44;4879255;29;20108;-73
2024/03/07 10:54:46;;;;;;;6.10;2.28;;;;;;;10.88;20.68;100489.56;4908062;29;20088;-74
2024/03/07 10:57:22;;;;;;;4.15;1.88;;;;;;;10.43;21.39;100486.88;4908392;29;20531;-76
2024/03/07 11:00:11;;;;;;;7.03;2.13;;;;;;;9.58;21.71;100383.41;4896893;29;20108;-72
2024/03/07 11:02:46;;;;;;;3.75;1.88;;;;;;;9.51;22.02;100389.44;4891341;29;20139;-76
2024/03/07 11:05:15;;;;;;;3.63;1.60;;;;;;;9.29;22.25;100402.31;4879150;29;20053;-75
2024/03/07 11:07:44;;;;;;;;;;;;;;;9.71;22.39;100484.81;4907673;29;20060;-73
2024/03/07 11:10:17;;;;;;;3.85;1.88;;;;;;;9.42;22.53;100447.41;4881373;29;19919;-77
2024/03/07 11:12:51;;;;;;;6.03;2.05;;;;;;;8.83;22.75;100386.41;4884414;29;20048;-72
2024/03/07 11:15:20;;;;;;;5.50;2.13;;;;;;;8.80;23.29;100417.53;4892269;29;20507;-74
2024/03/07 11:17:49;;;;;;;5.00;1.92;;;;;;;8.64;23.15;100435.56;4874733;29;20044;-74
2024/03/07 11:20:20;;;;;;;4.50;2.10;;;;;;;8.45;23.68;100442.25;4889100;29;20080;-73
2024/03/07 11:22:49;;;;;;;3.78;2.35;;;;;;;8.34;23.91;100420.56;4900754;29;20556;-79
2024/03/07 11:25:23;;;;;;;5.32;2.03;;;;;;;7.82;24.49;100342.25;4875733;29;20432;-74
2024/03/07 11:27:56;;;;;;;3.53;2.50;;;;;;;8.43;24.67;100455.22;4900592;29;20108;-72
2024/03/07 11:30:24;;;;;;;8.82;2.22;;;;;;;8.04;24.82;100415.06;4885051;29;20080;-71
2024/03/07 11:32:53;;;;;;;4.13;1.73;;;;;;;8.15;24.92;100454.06;4873741;29;20581;-73